createdAt,value
2019-05-20T00:02:37.333Z,1495
2019-05-20T00:07:47.063Z,1516
2019-05-20T00:12:56.508Z,1535
2019-05-20T00:18:06.233Z,1545
2019-05-20T00:23:15.394Z,1564
2019-05-20T00:28:24.546Z,1567
2019-05-20T00:33:34.265Z,1544
2019-05-20T00:38:43.724Z,1544
2019-05-20T00:43:53.151Z,1577
2019-05-20T00:49:02.351Z,1591
2019-05-20T00:54:11.767Z,1570
2019-05-20T00:59:20.931Z,1572
2019-05-20T01:04:30.371Z,1567
2019-05-20T01:09:39.249Z,1571
2019-05-20T01:14:48.961Z,1582
2019-05-20T01:19:58.411Z,1571
2019-05-20T01:25:07.285Z,1573
2019-05-20T01:30:17.010Z,1583
2019-05-20T01:35:26.177Z,1563
2019-05-20T01:40:35.904Z,1570
2019-05-20T01:45:45.624Z,1562
2019-05-20T01:50:54.783Z,1554
2019-05-20T01:56:03.950Z,1549
2019-05-20T02:01:13.131Z,1541
2019-05-20T02:06:22.855Z,1495
2019-05-20T02:11:32.584Z,1460
2019-05-20T02:16:42.003Z,1452
2019-05-20T02:21:51.735Z,1447
2019-05-20T02:27:01.174Z,1470
2019-05-20T02:32:10.611Z,1461
2019-05-20T02:37:19.776Z,1488
2019-05-20T02:42:28.953Z,1491
2019-05-20T02:47:38.671Z,1493
2019-05-20T02:52:48.111Z,1519
2019-05-20T02:58:00.810Z,1517
2019-05-20T03:03:09.981Z,1525
2019-05-20T03:08:19.732Z,1523
2019-05-20T03:13:28.890Z,1516
2019-05-20T03:18:38.331Z,1514
2019-05-20T03:23:47.783Z,1518
2019-05-20T03:28:56.939Z,1509
2019-05-20T03:34:06.674Z,1516
2019-05-20T03:39:15.828Z,1544
2019-05-20T03:44:25.037Z,1552
2019-05-20T03:49:34.503Z,1548
2019-05-20T03:54:43.663Z,1584
2019-05-20T03:59:53.109Z,1550
2019-05-20T07:25:38.984Z,633
2019-05-20T07:30:49.272Z,722
2019-05-20T07:32:21.812Z,689
2019-05-20T07:38:36.628Z,1105
2019-05-20T07:43:48.297Z,668
2019-05-20T07:48:59.984Z,646
2019-05-20T07:54:11.881Z,641
2019-05-20T07:59:23.604Z,639
2019-05-20T08:04:35.395Z,645
2019-05-20T08:09:47.558Z,645
2019-05-20T08:14:59.233Z,638
2019-05-20T08:20:11.049Z,646
2019-05-20T08:25:22.560Z,651
2019-05-20T08:30:34.270Z,642
2019-05-20T08:35:46.012Z,648
2019-05-20T08:40:57.851Z,651
2019-05-20T08:46:09.660Z,642
2019-05-20T08:51:21.153Z,648
2019-05-20T09:43:46.925Z,936
2019-05-20T09:48:09.278Z,636
2019-05-20T09:51:58.362Z,622
2019-05-20T09:57:34.835Z,789
2019-05-20T10:02:46.258Z,645
2019-05-20T10:07:58.191Z,614
2019-05-20T10:13:10.053Z,609
2019-05-20T10:19:09.024Z,969
2019-05-20T10:24:20.875Z,641
2019-05-20T10:25:55.142Z,633
2019-05-20T10:31:07.217Z,621
2019-05-20T10:36:19.270Z,622
2019-05-20T10:41:31.267Z,632
2019-05-20T10:46:43.281Z,631
2019-05-20T10:51:55.294Z,632
2019-05-20T10:57:07.351Z,664
2019-05-20T11:02:19.431Z,707
2019-05-20T11:07:31.516Z,663
2019-05-20T11:12:43.492Z,656
2019-05-20T11:17:55.587Z,648
2019-05-20T11:23:07.601Z,711
2019-05-20T11:28:19.571Z,662
2019-05-20T11:33:31.593Z,660
2019-05-20T11:38:44.720Z,1578
2019-05-20T11:44:05.625Z,677
2019-05-20T11:49:23.324Z,661
2019-05-20T11:54:39.879Z,664
2019-05-20T11:59:51.842Z,668
2019-05-20T12:05:03.861Z,670
2019-05-20T12:10:15.895Z,669
2019-05-20T12:15:27.989Z,660
2019-05-20T12:20:39.967Z,657
2019-05-20T12:25:52.018Z,655
2019-05-20T12:31:04.040Z,655
2019-05-20T12:36:16.875Z,636
2019-05-20T12:41:39.795Z,1183
2019-05-20T12:42:17.062Z,727
2019-05-20T12:47:31.468Z,644
2019-05-20T12:52:43.655Z,633
2019-05-20T12:57:55.730Z,701
2019-05-20T13:03:07.648Z,648
